Petersburg James A Johnson Airport Petersburg US
ICAO: PAPG
IATA:
Category: Medium
Scheduled Services:

Elevation: 111 ft
TransAlt. 18000 ft.

Airport Communications:
AWOS 3:125.8
ANCHORAGE CNTR:118
CTAF:122.5
SITKA RDO:122.35

PAPG Zoom In..

If Map Doesn't Load, Click Here

Runways:

(A) RW 05 length 6400 ft width 150 ft
---- / hdg 50

(B) RW 23 length 6400 ft width 150 ft
---- / hdg 230

Location; PAPG
Day. 23 / Time. 08.19 Zulu
* Altimeter: 29.97
* Temperature: 09° c. 48.2°f.
* Wind from: 000° Speed 00 kn.
Dewpoint: 08° c.
Visibility: 6 Statute Miles.
Clouds: Scattered 2800 ft.
Clouds: Overcast 4600 ft.
Conditions: Light Rain.Conditions: Mist.

PAPG 230819Z AUTO 00000KT 6SM -RA BR SCT028 OVC046 09/08 A2997 RMK AO2 P0000


Wind - Calm.

 
 
jpsmedia.com for Web Design worldairports.se 2018   terms of use